Time;durP1;ratioP1;P1;durP2;ratioP2;P2;SDS_P1;SDS_P2;PMS_P1;PMS_P2;Temp;Humidity;BMP_temperature;BMP_pressure;BME280_temperature;BME280_humidity;BME280_pressure;Samples;Min_cycle;Max_cycle;Signal;HPM_P1;HPM_P2
2021/07/02 00:01:33;;;;;;;541.53;277.92;;;13.30;99.90;;;;;;8194979;28;20567;-64
2021/07/02 00:05:34;;;;;;;534.35;276.60;;;13.30;99.90;;;;;;8220715;28;20461;-65
2021/07/02 00:09:34;;;;;;;537.30;275.05;;;13.50;99.90;;;;;;8227951;28;20034;-65
2021/07/02 00:13:37;;;;;;;534.50;278.60;;;13.30;99.90;;;;;;8226316;28;20038;-66
2021/07/02 00:17:38;;;;;;;532.63;275.75;;;13.30;99.90;;;;;;8227787;28;20534;-65
2021/07/02 00:21:38;;;;;;;534.75;285.27;;;13.30;99.90;;;;;;8227489;28;20035;-64
2021/07/02 00:25:39;;;;;;;536.08;278.58;;;13.30;99.90;;;;;;8198638;28;20027;-65
2021/07/02 00:29:39;;;;;;;534.33;277.85;;;13.30;99.90;;;;;;8195629;28;20095;-65
2021/07/02 00:33:40;;;;;;;534.00;276.88;;;13.30;99.90;;;;;;8196296;28;20092;-65
2021/07/02 00:37:41;;;;;;;533.63;274.35;;;13.10;99.90;;;;;;8193887;28;20567;-64
2021/07/02 00:41:41;;;;;;;532.33;275.25;;;12.90;99.90;;;;;;8195283;28;20027;-65
2021/07/02 00:45:42;;;;;;;532.13;272.10;;;13.00;99.90;;;;;;8195001;28;20035;-64
2021/07/02 00:49:43;;;;;;;529.15;267.63;;;13.00;99.90;;;;;;8195191;28;20471;-65
2021/07/02 00:53:44;;;;;;;530.70;270.58;;;13.00;99.90;;;;;;8193159;28;20046;-64
2021/07/02 00:57:45;;;;;;;531.00;267.83;;;13.00;99.90;;;;;;8194048;28;20118;-64
2021/07/02 01:01:46;;;;;;;538.22;266.05;;;13.10;99.90;;;;;;8194830;28;20515;-64
2021/07/02 01:05:46;;;;;;;530.55;263.45;;;12.90;99.90;;;;;;8220566;28;20030;-64
2021/07/02 01:09:47;;;;;;;533.13;262.70;;;13.00;99.90;;;;;;8226607;28;20089;-64
2021/07/02 01:13:47;;;;;;;533.92;269.00;;;13.10;99.90;;;;;;8226421;28;20035;-64
2021/07/02 01:17:48;;;;;;;532.60;264.80;;;13.10;99.90;;;;;;8225707;28;20472;-64
2021/07/02 01:21:49;;;;;;;535.00;269.95;;;13.10;99.90;;;;;;8226570;28;20164;-65
2021/07/02 01:25:49;;;;;;;533.65;266.92;;;13.10;99.90;;;;;;8194346;28;20545;-64
2021/07/02 01:29:50;;;;;;;533.38;272.10;;;12.90;99.90;;;;;;8194500;28;20393;-64
2021/07/02 01:33:51;;;;;;;531.50;274.55;;;12.80;99.90;;;;;;8205073;28;20026;-64
2021/07/02 01:37:52;;;;;;;529.85;265.25;;;12.70;99.90;;;;;;8225628;28;20117;-64
2021/07/02 01:41:52;;;;;;;533.47;269.25;;;13.10;99.90;;;;;;8224841;28;20035;-64
2021/07/02 01:45:54;;;;;;;530.80;268.92;;;13.10;99.90;;;;;;8225307;28;20035;-64
2021/07/02 01:49:54;;;;;;;530.40;274.10;;;13.30;99.90;;;;;;8225412;28;20026;-65
2021/07/02 01:53:55;;;;;;;529.83;271.90;;;13.30;99.90;;;;;;8210184;28;20033;-64
2021/07/02 01:57:55;;;;;;;531.83;270.25;;;13.30;99.90;;;;;;8193078;28;20093;-64
2021/07/02 02:01:56;;;;;;;530.60;266.48;;;13.20;99.90;;;;;;8192186;29;20027;-64
2021/07/02 02:05:57;;;;;;;532.45;271.63;;;13.10;99.90;;;;;;8220400;28;20114;-65
2021/07/02 02:09:57;;;;;;;534.58;272.80;;;13.10;99.90;;;;;;8224859;28;20031;-64
2021/07/02 02:13:58;;;;;;;537.70;273.20;;;13.10;99.90;;;;;;8224748;28;20042;-64
2021/07/02 02:18:00;;;;;;;536.67;264.67;;;13.20;99.90;;;;;;8224390;28;20449;-64
2021/07/02 02:22:01;;;;;;;533.42;267.15;;;13.20;99.90;;;;;;8224557;28;20026;-64
2021/07/02 02:26:01;;;;;;;540.53;273.55;;;13.10;99.90;;;;;;8190943;28;20140;-64
2021/07/02 02:30:05;;;;;;;533.80;266.65;;;13.20;99.90;;;;;;8192505;28;20065;-64
2021/07/02 02:34:06;;;;;;;532.65;269.85;;;13.00;99.90;;;;;;8203715;28;20034;-64
2021/07/02 02:38:07;;;;;;;535.47;267.63;;;13.10;99.90;;;;;;8223928;28;20038;-65
2021/07/02 02:42:08;;;;;;;533.10;271.48;;;13.10;99.90;;;;;;8223856;28;20039;-64
2021/07/02 02:46:08;;;;;;;535.47;272.67;;;13.00;99.90;;;;;;8224059;28;20106;-64
2021/07/02 02:50:09;;;;;;;536.42;273.60;;;13.20;99.90;;;;;;8223823;28;20034;-65
2021/07/02 02:54:10;;;;;;;535.33;272.63;;;13.10;99.90;;;;;;8206386;28;20024;-64
2021/07/02 02:58:10;;;;;;;536.47;272.88;;;13.10;99.90;;;;;;8189422;29;20019;-65
2021/07/02 03:02:11;;;;;;;532.58;265.45;;;13.10;99.90;;;;;;8191461;28;20035;-65
2021/07/02 03:06:12;;;;;;;532.38;270.48;;;12.90;99.90;;;;;;8220875;28;20027;-65
2021/07/02 03:10:12;;;;;;;531.40;264.90;;;12.80;99.90;;;;;;8223477;28;20108;-64
2021/07/02 03:14:13;;;;;;;533.88;264.02;;;12.80;99.90;;;;;;8223105;28;20043;-64
2021/07/02 03:18:13;;;;;;;533.60;263.52;;;12.90;99.90;;;;;;8222934;28;20088;-64
2021/07/02 03:22:14;;;;;;;531.50;264.33;;;13.00;99.90;;;;;;8231302;28;20034;-64
2021/07/02 03:26:16;;;;;;;530.75;262.25;;;12.70;99.90;;;;;;8197784;28;20051;-64
2021/07/02 03:30:17;;;;;;;528.60;259.40;;;12.60;99.90;;;;;;8170168;28;20023;-64
2021/07/02 03:34:18;;;;;;;533.30;261.42;;;12.60;99.90;;;;;;8198192;28;20031;-65
2021/07/02 03:38:19;;;;;;;532.45;260.48;;;12.50;99.90;;;;;;8232100;28;20030;-64
2021/07/02 03:42:19;;;;;;;531.20;261.83;;;12.50;99.90;;;;;;8233457;28;20058;-65
2021/07/02 03:46:20;;;;;;;531.42;258.83;;;12.30;99.90;;;;;;8228283;28;20027;-64
2021/07/02 03:50:20;;;;;;;527.42;263.65;;;12.20;99.90;;;;;;8169753;28;20558;-64
2021/07/02 03:54:21;;;;;;;537.15;261.52;;;12.10;99.90;;;;;;8187827;29;20030;-64
2021/07/02 03:58:21;;;;;;;562.28;254.25;;;12.10;99.90;;;;;;8199251;28;20023;-64
2021/07/02 04:02:22;;;;;;;582.38;258.75;;;12.30;99.90;;;;;;8199690;28;20388;-64
2021/07/02 04:06:22;;;;;;;580.65;248.10;;;12.30;99.90;;;;;;8228653;28;20113;-64
2021/07/02 04:10:23;;;;;;;568.95;245.38;;;12.40;99.90;;;;;;8198750;28;20097;-64
2021/07/02 04:14:23;;;;;;;545.10;245.32;;;12.60;99.90;;;;;;8193562;28;20070;-64
2021/07/02 04:18:24;;;;;;;586.35;246.73;;;12.50;99.90;;;;;;8198455;28;20023;-64
2021/07/02 04:22:24;;;;;;;583.05;249.18;;;12.50;99.90;;;;;;8198345;28;20035;-64
2021/07/02 04:26:25;;;;;;;538.75;241.45;;;12.60;99.90;;;;;;8197727;28;20477;-64
2021/07/02 04:30:25;;;;;;;555.47;255.90;;;12.60;99.90;;;;;;8172938;28;20085;-64
2021/07/02 04:34:26;;;;;;;520.83;252.70;;;12.70;99.90;;;;;;8186814;28;20668;-64
2021/07/02 04:38:27;;;;;;;539.85;254.75;;;12.60;99.90;;;;;;8168982;28;20042;-64
2021/07/02 04:42:27;;;;;;;538.67;260.73;;;12.80;99.90;;;;;;8189038;28;20128;-65
2021/07/02 04:46:28;;;;;;;524.42;257.02;;;12.80;99.90;;;;;;8185906;28;20031;-66
2021/07/02 04:50:28;;;;;;;527.08;255.27;;;12.70;99.90;;;;;;8188379;28;20376;-67
2021/07/02 04:54:29;;;;;;;530.92;262.45;;;12.70;99.90;;;;;;8254043;28;20050;-67
2021/07/02 04:58:30;;;;;;;527.33;266.55;;;12.90;99.90;;;;;;8169758;28;20087;-67
2021/07/02 05:02:30;;;;;;;524.15;265.48;;;13.10;99.90;;;;;;8190576;28;20035;-67
2021/07/02 05:06:33;;;;;;;523.95;261.48;;;13.50;99.90;;;;;;8178715;28;20089;-67
2021/07/02 05:10:34;;;;;;;530.85;260.95;;;13.60;99.90;;;;;;8194089;28;20015;-67
2021/07/02 05:14:35;;;;;;;511.10;269.35;;;13.90;99.90;;;;;;8189957;28;20031;-67
2021/07/02 05:18:36;;;;;;;516.03;278.13;;;14.20;99.90;;;;;;8182243;28;20039;-67
2021/07/02 05:22:37;;;;;;;516.53;273.27;;;14.60;99.90;;;;;;8190213;28;20042;-67
2021/07/02 05:26:37;;;;;;;521.90;275.08;;;14.70;99.90;;;;;;8181140;28;20032;-67
2021/07/02 05:30:38;;;;;;;522.15;279.02;;;14.70;99.90;;;;;;8163766;28;20016;-66
2021/07/02 05:34:39;;;;;;;522.47;284.35;;;14.80;99.90;;;;;;8174585;28;20036;-67
2021/07/02 05:38:39;;;;;;;516.65;292.02;;;15.10;99.90;;;;;;8164576;29;20031;-67
2021/07/02 05:42:41;;;;;;;521.78;327.00;;;15.30;99.90;;;;;;8175796;28;20047;-68
2021/07/02 05:46:41;;;;;;;515.30;357.55;;;15.60;99.90;;;;;;8164656;28;20503;-66
2021/07/02 05:50:42;;;;;;;522.75;332.92;;;16.00;99.90;;;;;;8176041;28;20039;-67
2021/07/02 05:54:47;;;;;;;516.58;288.40;;;16.10;99.90;;;;;;8182489;29;20478;-66
2021/07/02 05:58:48;;;;;;;522.00;293.25;;;16.30;99.90;;;;;;8170507;28;20032;-67
2021/07/02 06:02:49;;;;;;;527.45;316.30;;;16.20;99.90;;;;;;8164175;28;20038;-67
2021/07/02 06:06:49;;;;;;;534.47;333.30;;;16.30;99.90;;;;;;8182820;28;20030;-67
2021/07/02 06:10:50;;;;;;;533.05;347.40;;;16.20;99.90;;;;;;8159777;29;20035;-66
2021/07/02 06:14:51;;;;;;;548.28;419.52;;;16.40;99.90;;;;;;8163803;28;20031;-67
2021/07/02 06:18:51;;;;;;;530.10;342.45;;;16.50;99.90;;;;;;8179672;28;20509;-60
2021/07/02 06:22:52;;;;;;;511.83;319.80;;;16.70;99.90;;;;;;8185759;28;20043;-61
2021/07/02 06:26:53;;;;;;;534.05;364.33;;;16.80;99.90;;;;;;8275150;28;20028;-61
2021/07/02 06:30:53;;;;;;;546.47;421.65;;;16.90;99.90;;;;;;8280830;28;20031;-60
2021/07/02 06:34:54;;;;;;;537.38;375.45;;;17.10;99.90;;;;;;8165343;28;20077;-60
2021/07/02 06:38:55;;;;;;;458.02;254.95;;;17.40;99.90;;;;;;8181687;28;20034;-58
2021/07/02 06:42:55;;;;;;;482.95;295.40;;;17.30;99.90;;;;;;8161734;28;20098;-58
2021/07/02 06:46:56;;;;;;;121.10;109.53;;;17.20;99.90;;;;;;8159190;29;20038;-61
2021/07/02 06:50:57;;;;;;;514.85;313.60;;;17.20;99.90;;;;;;8167627;29;20042;-60
2021/07/02 06:54:57;;;;;;;513.63;314.27;;;17.30;99.90;;;;;;8178368;29;20060;-59
2021/07/02 06:58:58;;;;;;;516.90;322.85;;;17.10;99.90;;;;;;8175610;28;20053;-59
2021/07/02 07:02:59;;;;;;;526.72;352.95;;;17.20;99.90;;;;;;8185991;28;20038;-58
2021/07/02 07:06:59;;;;;;;524.20;345.27;;;17.20;99.90;;;;;;8178503;28;20054;-59
2021/07/02 07:11:01;;;;;;;523.00;381.42;;;17.50;99.90;;;;;;8177587;28;20082;-60
2021/07/02 07:15:03;;;;;;;522.90;354.88;;;17.70;99.90;;;;;;8177258;28;20031;-60
2021/07/02 07:19:04;;;;;;;526.50;375.83;;;17.80;99.90;;;;;;8171181;28;20032;-58
2021/07/02 07:23:05;;;;;;;462.83;244.82;;;17.80;99.90;;;;;;8173336;28;20047;-59
2021/07/02 07:27:05;;;;;;;427.90;244.40;;;18.00;99.90;;;;;;8184897;28;20114;-60
2021/07/02 07:31:07;;;;;;;422.77;245.20;;;18.20;99.90;;;;;;8188291;28;20045;-60
2021/07/02 07:35:21;;;;;;;307.67;199.40;;;18.40;99.90;;;;;;8187897;28;20020;-60
2021/07/02 07:39:21;;;;;;;380.08;335.38;;;18.50;99.90;;;;;;8171254;28;20082;-59
2021/07/02 07:43:24;;;;;;;464.80;266.30;;;18.20;99.90;;;;;;8188655;28;20028;-60
2021/07/02 07:47:24;;;;;;;450.50;249.05;;;18.10;99.90;;;;;;8165081;28;20024;-58
2021/07/02 07:55:29;;;;;;;58.88;55.38;;;18.50;99.90;;;;;;8173835;29;20031;-61
2021/07/02 07:59:31;;;;;;;58.88;55.33;;;18.80;99.90;;;;;;8189823;28;20024;-61
2021/07/02 08:03:32;;;;;;;62.95;58.95;;;18.90;99.90;;;;;;8177053;28;20085;-60
2021/07/02 08:07:41;;;;;;;66.72;62.88;;;19.20;99.90;;;;;;8166574;28;20032;-61
2021/07/02 08:11:41;;;;;;;62.42;58.78;;;19.20;99.90;;;;;;8185855;28;20430;-61
2021/07/02 08:15:42;;;;;;;64.47;59.80;;;19.00;99.90;;;;;;8174506;28;20039;-60
2021/07/02 08:19:43;;;;;;;61.67;58.25;;;19.00;99.90;;;;;;8194385;28;20407;-61
2021/07/02 08:23:44;;;;;;;63.95;60.45;;;19.40;99.90;;;;;;8245631;28;20036;-61
2021/07/02 08:32:03;;;;;;;64.00;60.40;;;19.20;99.90;;;;;;8192291;28;20035;-60
2021/07/02 08:36:04;;;;;;;63.38;59.78;;;19.20;99.90;;;;;;8184890;28;20048;-60
2021/07/02 08:40:06;;;;;;;63.88;60.22;;;19.30;99.90;;;;;;8166621;29;20064;-62
2021/07/02 08:44:06;;;;;;;64.50;60.90;;;19.90;99.90;;;;;;8173569;29;20050;-61
2021/07/02 08:48:08;;;;;;;68.07;64.22;;;19.90;99.90;;;;;;8188326;28;20020;-61
2021/07/02 08:52:08;;;;;;;67.60;63.83;;;20.10;99.90;;;;;;8177743;28;20031;-61
2021/07/02 08:56:09;;;;;;;65.28;61.17;;;19.90;99.90;;;;;;8179205;28;20054;-61
2021/07/02 09:00:10;;;;;;;64.28;60.60;;;20.20;99.90;;;;;;8177104;28;20034;-61
2021/07/02 09:04:18;;;;;;;66.63;62.83;;;20.70;99.90;;;;;;8189816;28;20032;-61
2021/07/02 09:08:19;;;;;;;63.58;59.80;;;20.80;99.90;;;;;;8192897;28;20024;-60
2021/07/02 09:12:28;;;;;;;62.22;58.55;;;21.10;99.90;;;;;;8190147;28;20034;-61
2021/07/02 09:16:38;;;;;;;66.60;62.83;;;21.10;99.90;;;;;;8178142;28;20493;-60
2021/07/02 09:20:40;;;;;;;68.97;65.23;;;20.10;99.90;;;;;;8174725;28;20023;-60
2021/07/02 09:24:48;;;;;;;68.07;64.13;;;20.50;99.90;;;;;;8177128;28;20601;-60
2021/07/02 09:28:48;;;;;;;65.07;61.60;;;20.30;99.90;;;;;;8162163;28;20571;-61
2021/07/02 09:32:55;;;;;;;66.80;62.97;;;20.50;99.90;;;;;;8186893;28;20042;-61
2021/07/02 09:36:55;;;;;;;62.83;59.28;;;20.70;99.90;;;;;;8173707;29;20039;-59
2021/07/02 09:40:56;;;;;;;66.43;62.72;;;20.40;99.90;;;;;;8180978;28;20042;-58
2021/07/02 09:45:10;;;;;;;66.00;62.30;;;20.50;99.90;;;;;;8188370;28;20161;-61
2021/07/02 09:49:24;;;;;;;61.03;57.67;;;20.30;99.90;;;;;;8192696;28;20038;-61
2021/07/02 09:53:29;;;;;;;62.95;59.25;;;20.60;99.90;;;;;;8189683;28;20032;-61
2021/07/02 09:57:29;;;;;;;62.92;59.22;;;20.60;99.90;;;;;;8170741;28;20028;-61
2021/07/02 10:01:30;;;;;;;63.47;59.72;;;20.80;99.90;;;;;;8165681;29;20054;-61
2021/07/02 10:05:55;;;;;;;65.18;61.28;;;20.70;99.90;;;;;;8175597;28;20077;-59
2021/07/02 10:09:56;;;;;;;65.68;61.88;;;20.90;99.90;;;;;;8192271;28;20116;-60
2021/07/02 10:13:58;;;;;;;68.32;64.30;;;20.90;99.90;;;;;;8178106;28;20517;-61
2021/07/02 10:17:59;;;;;;;72.72;68.43;;;20.80;99.90;;;;;;8188347;28;20110;-61
2021/07/02 10:22:01;;;;;;;71.55;67.20;;;20.60;99.90;;;;;;8175305;28;20042;-61
2021/07/02 10:26:06;;;;;;;76.40;71.43;;;20.50;99.90;;;;;;8195578;28;20031;-61
2021/07/02 10:30:09;;;;;;;69.90;65.53;;;21.10;99.90;;;;;;8180637;28;20054;-61
2021/07/02 10:34:10;;;;;;;74.80;70.22;;;21.20;99.90;;;;;;8181085;28;20629;-59
2021/07/02 10:38:11;;;;;;;71.93;67.43;;;20.90;99.90;;;;;;8175162;28;20106;-60
2021/07/02 10:42:14;;;;;;;72.00;67.60;;;21.10;99.90;;;;;;8164142;29;20034;-61
2021/07/02 10:46:16;;;;;;;74.30;69.85;;;21.60;99.90;;;;;;8187213;28;20039;-65
2021/07/02 10:50:43;;;;;;;69.07;65.03;;;21.70;99.90;;;;;;8156927;29;20178;-65
2021/07/02 10:54:44;;;;;;;65.35;61.45;;;22.30;99.90;;;;;;8182168;29;20024;-64
2021/07/02 10:58:52;;;;;;;69.25;65.13;;;22.00;99.90;;;;;;8191329;28;20110;-65
2021/07/02 11:03:19;;;;;;;69.78;65.68;;;21.60;99.90;;;;;;8195211;28;20022;-65
2021/07/02 11:07:21;;;;;;;68.88;64.97;;;21.10;99.90;;;;;;8223633;28;20018;-65
2021/07/02 11:11:22;;;;;;;75.40;70.85;;;21.50;99.90;;;;;;8169489;28;20038;-65
2021/07/02 11:15:23;;;;;;;76.75;72.07;;;22.20;99.90;;;;;;8175756;28;20035;-64
2021/07/02 11:19:25;;;;;;;78.25;73.38;;;22.40;99.90;;;;;;8174882;29;20498;-65
2021/07/02 11:23:26;;;;;;;102.60;95.22;;;22.00;99.90;;;;;;8171043;28;20452;-65
2021/07/02 11:27:40;;;;;;;73.53;69.05;;;22.00;98.70;;;;;;8171174;28;20123;-64
2021/07/02 11:31:42;;;;;;;76.07;71.45;;;23.00;96.10;;;;;;8159385;29;20421;-65
2021/07/02 11:35:44;;;;;;;75.13;70.72;;;23.90;95.60;;;;;;8186022;28;20033;-66
2021/07/02 11:39:45;;;;;;;78.50;73.88;;;25.00;95.20;;;;;;8189229;28;20027;-66
2021/07/02 11:43:46;;;;;;;80.40;75.65;;;24.90;93.40;;;;;;8181070;28;20063;-65
2021/07/02 11:47:46;;;;;;;77.72;73.07;;;24.70;94.90;;;;;;8183128;28;20101;-65
2021/07/02 11:51:47;;;;;;;82.43;77.57;;;25.60;90.80;;;;;;8182532;28;20058;-65
2021/07/02 11:56:06;;;;;;;63.65;59.88;;;27.70;79.20;;;;;;8181327;28;20031;-65
2021/07/02 12:00:07;;;;;;;105.20;99.30;;;29.40;69.80;;;;;;8180127;29;20042;-64
2021/07/02 12:04:31;;;;;;;126.40;119.38;;;27.50;78.30;;;;;;8202837;28;20093;-63
2021/07/02 12:08:32;;;;;;;127.40;120.18;;;27.10;73.30;;;;;;8197032;28;20074;-64
2021/07/02 12:12:32;;;;;;;126.32;119.15;;;26.10;77.10;;;;;;8226849;28;20038;-61
2021/07/02 12:16:36;;;;;;;127.68;120.57;;;25.00;78.20;;;;;;8207536;28;20023;-61
2021/07/02 12:20:37;;;;;;;114.80;108.63;;;24.30;81.00;;;;;;8178984;28;20066;-61
2021/07/02 12:24:43;;;;;;;116.25;110.00;;;24.20;90.00;;;;;;8183852;28;20453;-61
2021/07/02 12:29:10;;;;;;;109.18;103.18;;;24.50;79.50;;;;;;8176189;28;20821;-62
2021/07/02 12:33:11;;;;;;;105.93;99.88;;;24.50;81.30;;;;;;8181820;28;20043;-62
2021/07/02 12:37:14;;;;;;;107.78;101.70;;;25.40;70.80;;;;;;8176741;28;20039;-62
2021/07/02 12:41:15;;;;;;;95.88;90.53;;;25.50;76.80;;;;;;8177806;29;20077;-61
2021/07/02 12:45:17;;;;;;;112.53;106.05;;;25.50;69.90;;;;;;8177060;28;20128;-61
2021/07/02 12:49:27;;;;;;;119.72;113.18;;;26.00;72.60;;;;;;8178526;28;20489;-62
2021/07/02 12:57:49;;;;;;;115.43;109.13;;;30.60;57.90;;;;;;8174779;28;20062;-63
2021/07/02 13:01:50;;;;;;;157.70;149.18;;;34.10;46.00;;;;;;8178066;28;20031;-62
2021/07/02 13:05:50;;;;;;;159.82;151.30;;;33.70;46.40;;;;;;8181098;28;20086;-62
2021/07/02 13:10:11;;;;;;;194.88;184.48;;;33.80;45.00;;;;;;8177960;28;20513;-63
2021/07/02 13:14:28;;;;;;;193.15;183.20;;;35.00;44.80;;;;;;8176575;28;20055;-62
2021/07/02 13:18:40;;;;;;;217.80;206.32;;;35.60;40.90;;;;;;8168967;28;20039;-62
2021/07/02 13:22:42;;;;;;;2.75;2.40;;;33.60;46.20;;;;;;8175493;28;20401;-62
2021/07/02 13:26:42;;;;;;;3.78;2.72;;;33.30;45.30;;;;;;8173378;29;20386;-62
2021/07/02 13:30:43;;;;;;;2.75;2.50;;;32.40;46.80;;;;;;8165263;28;20055;-62
2021/07/02 13:34:44;;;;;;;3.25;2.95;;;29.10;52.70;;;;;;8200971;28;20637;-62
2021/07/02 13:39:01;;;;;;;3.30;2.72;;;27.30;58.00;;;;;;8210398;28;20496;-62
2021/07/02 13:43:12;;;;;;;4.03;2.90;;;29.50;54.60;;;;;;8186075;28;20670;-63
2021/07/02 13:47:15;;;;;;;4.20;2.70;;;29.10;52.20;;;;;;8184996;28;20035;-63
2021/07/02 13:51:15;;;;;;;3.47;2.88;;;28.20;52.50;;;;;;8188894;28;20031;-62
2021/07/02 13:55:16;;;;;;;2.60;2.40;;;27.50;51.20;;;;;;8177145;28;20040;-62
2021/07/02 13:59:20;;;;;;;2.45;2.22;;;29.50;53.80;;;;;;8180094;29;20035;-61
2021/07/02 14:03:23;;;;;;;2.50;2.30;;;33.50;47.10;;;;;;8196226;28;20113;-62
2021/07/02 14:07:23;;;;;;;4.82;2.65;;;34.90;42.20;;;;;;8190073;28;20054;-62
2021/07/02 14:11:24;;;;;;;2.47;2.28;;;31.90;44.40;;;;;;8180167;28;20038;-62
2021/07/02 14:15:25;;;;;;;2.80;2.40;;;32.20;46.20;;;;;;8154850;28;1042652;-61
2021/07/02 14:19:26;;;;;;;4.63;3.00;;;29.50;48.10;;;;;;8189719;28;20489;-61
2021/07/02 14:23:26;;;;;;;3.33;2.25;;;28.00;53.30;;;;;;8187188;28;20028;-62
2021/07/02 14:27:27;;;;;;;3.33;2.75;;;30.20;47.50;;;;;;8190466;28;20034;-63
2021/07/02 14:31:27;;;;;;;2.80;2.50;;;31.20;44.50;;;;;;8191793;28;20103;-63
2021/07/02 14:35:28;;;;;;;2.83;2.63;;;31.90;45.60;;;;;;8214754;28;20504;-63
2021/07/02 14:39:28;;;;;;;2.83;2.58;;;32.80;44.30;;;;;;8204945;28;20027;-63
2021/07/02 14:43:29;;;;;;;2.78;2.40;;;33.80;43.50;;;;;;8190175;28;20031;-63
2021/07/02 14:47:30;;;;;;;3.70;2.80;;;34.10;41.50;;;;;;8188021;28;20035;-62
2021/07/02 14:51:31;;;;;;;3.58;2.50;;;33.10;43.80;;;;;;8189984;28;20107;-63
2021/07/02 14:55:36;;;;;;;2.60;2.40;;;32.40;43.90;;;;;;8186466;28;20520;-63
2021/07/02 14:59:37;;;;;;;3.00;2.70;;;30.60;45.90;;;;;;8168475;28;20027;-63
2021/07/02 15:03:37;;;;;;;4.70;2.47;;;28.90;49.30;;;;;;8300355;28;20087;-62
2021/07/02 15:07:38;;;;;;;3.28;2.65;;;27.50;52.80;;;;;;8223916;28;20027;-63
2021/07/02 15:11:38;;;;;;;2.97;2.67;;;29.30;53.30;;;;;;8166885;28;20032;-63
2021/07/02 15:15:39;;;;;;;3.30;2.67;;;31.60;47.70;;;;;;8168673;29;20383;-63
2021/07/02 15:19:40;;;;;;;5.28;3.67;;;30.60;46.30;;;;;;8171808;28;20039;-63
2021/07/02 15:23:41;;;;;;;3.40;2.60;;;30.20;49.00;;;;;;8176094;28;20039;-63
2021/07/02 15:27:42;;;;;;;4.75;2.95;;;30.70;47.40;;;;;;8172013;28;20032;-63
2021/07/02 15:32:20;;;;;;;2.80;2.50;;;32.10;45.90;;;;;;8159587;29;20521;-63
2021/07/02 15:36:21;;;;;;;3.85;2.50;;;34.80;43.00;;;;;;8174885;28;20031;-64
2021/07/02 15:40:21;;;;;;;2.63;2.35;;;36.40;39.60;;;;;;8174314;29;20444;-64
2021/07/02 15:44:22;;;;;;;2.65;2.42;;;36.70;37.00;;;;;;8173918;29;20076;-63
2021/07/02 15:48:23;;;;;;;4.00;2.22;;;36.00;37.70;;;;;;8171002;28;20107;-63
2021/07/02 15:52:23;;;;;;;3.28;2.20;;;33.40;43.80;;;;;;8169830;28;20027;-63
2021/07/02 15:56:24;;;;;;;4.75;2.38;;;33.80;40.90;;;;;;8167763;28;20067;-64
2021/07/02 16:00:24;;;;;;;2.70;2.42;;;35.50;38.90;;;;;;8175457;28;20028;-64
2021/07/02 16:04:25;;;;;;;4.82;2.88;;;36.90;37.70;;;;;;8170531;28;20032;-64
2021/07/02 16:08:26;;;;;;;2.70;2.50;;;37.80;36.50;;;;;;8165367;29;20031;-64
2021/07/02 16:12:29;;;;;;;2.83;2.60;;;38.80;34.80;;;;;;8175541;28;20079;-62
2021/07/02 16:16:29;;;;;;;4.68;2.53;;;39.30;34.70;;;;;;8187733;28;20023;-62
2021/07/02 16:20:33;;;;;;;2.90;2.55;;;38.40;34.10;;;;;;8186920;28;20093;-62
2021/07/02 16:24:34;;;;;;;3.78;2.28;;;36.60;37.30;;;;;;8183919;28;20019;-62
2021/07/02 16:28:35;;;;;;;3.08;2.78;;;36.70;36.30;;;;;;8186931;28;20102;-62
2021/07/02 16:32:35;;;;;;;4.05;2.78;;;35.70;38.10;;;;;;8196044;28;20035;-62
2021/07/02 16:36:36;;;;;;;3.20;2.78;;;35.10;37.50;;;;;;8227466;28;20037;-62
2021/07/02 16:40:37;;;;;;;383.40;329.85;;;34.00;40.60;;;;;;8200196;28;20066;-62
2021/07/02 16:44:38;;;;;;;2.72;2.33;;;35.10;37.80;;;;;;8195202;28;20396;-62
2021/07/02 16:48:39;;;;;;;326.45;295.83;;;36.00;37.50;;;;;;8194839;28;20023;-62
2021/07/02 16:52:40;;;;;;;3.22;2.75;;;35.80;38.20;;;;;;8176424;28;20119;-62
2021/07/02 16:56:40;;;;;;;2.55;2.28;;;35.60;35.70;;;;;;8175250;28;20402;-64
2021/07/02 17:00:41;;;;;;;3.33;2.63;;;34.20;38.80;;;;;;8183471;28;20409;-65
2021/07/02 17:04:42;;;;;;;3.50;2.95;;;34.70;38.50;;;;;;8212033;28;20035;-64
2021/07/02 17:08:42;;;;;;;4.40;2.85;;;34.30;38.60;;;;;;8204116;28;20520;-65
2021/07/02 17:12:43;;;;;;;3.13;2.83;;;34.20;38.90;;;;;;8186203;28;20015;-64
2021/07/02 17:16:43;;;;;;;3.13;2.80;;;34.10;38.60;;;;;;8176079;28;20092;-63
2021/07/02 17:20:44;;;;;;;3.55;3.05;;;33.40;39.10;;;;;;8189891;28;20039;-64
2021/07/02 17:24:44;;;;;;;3.28;2.95;;;32.20;42.00;;;;;;8181035;28;20438;-63
2021/07/02 17:28:45;;;;;;;3.30;2.85;;;31.10;43.50;;;;;;8175167;28;20523;-64
2021/07/02 17:32:47;;;;;;;609.60;551.13;;;29.40;45.90;;;;;;8192210;28;20135;-63
2021/07/02 17:36:47;;;;;;;3.53;3.15;;;27.50;50.10;;;;;;8178865;28;20062;-64
2021/07/02 17:40:50;;;;;;;749.15;576.33;;;26.30;51.60;;;;;;8188683;28;20035;-63
2021/07/02 17:44:51;;;;;;;238.88;224.50;;;24.70;55.40;;;;;;8192431;28;20035;-64
2021/07/02 17:48:55;;;;;;;207.02;195.10;;;25.00;57.60;;;;;;8191662;28;20551;-64
2021/07/02 17:52:56;;;;;;;311.65;294.10;;;24.50;57.40;;;;;;8178060;28;20107;-64
2021/07/02 17:56:56;;;;;;;327.98;306.75;;;23.50;60.50;;;;;;8168384;28;20097;-63
2021/07/02 18:00:57;;;;;;;407.52;380.88;;;23.00;63.90;;;;;;8162551;29;20024;-64
2021/07/02 18:04:57;;;;;;;507.83;469.40;;;23.50;59.70;;;;;;8181444;28;20032;-64
2021/07/02 18:08:58;;;;;;;388.52;361.98;;;23.00;65.00;;;;;;8188759;28;20020;-64
2021/07/02 18:12:59;;;;;;;399.95;373.40;;;23.00;65.00;;;;;;8179517;28;20165;-65
2021/07/02 18:17:00;;;;;;;338.90;319.88;;;24.30;63.10;;;;;;8169612;29;20023;-64
2021/07/02 18:21:01;;;;;;;328.23;309.40;;;25.20;60.50;;;;;;8184119;28;20389;-65
2021/07/02 18:25:07;;;;;;;340.35;320.13;;;24.80;61.80;;;;;;8184509;29;20510;-63
2021/07/02 18:29:07;;;;;;;328.95;309.25;;;23.30;65.10;;;;;;8187165;28;20501;-63
2021/07/02 18:33:08;;;;;;;320.85;301.20;;;21.80;72.10;;;;;;8187017;28;20031;-63
2021/07/02 18:37:09;;;;;;;280.33;263.73;;;20.90;78.00;;;;;;8208373;28;20088;-63
2021/07/02 18:41:11;;;;;;;271.38;255.32;;;20.20;80.40;;;;;;8203518;28;20112;-63
2021/07/02 18:45:13;;;;;;;329.83;309.40;;;19.70;84.30;;;;;;8202931;28;20023;-63
2021/07/02 18:49:14;;;;;;;332.35;312.13;;;19.30;89.10;;;;;;8190068;28;20023;-64
2021/07/02 18:53:15;;;;;;;304.40;286.23;;;19.20;94.60;;;;;;8190714;28;20030;-64
2021/07/02 18:57:15;;;;;;;339.00;318.38;;;19.00;94.10;;;;;;8191147;28;20038;-63
2021/07/02 19:01:16;;;;;;;351.17;329.40;;;19.00;96.90;;;;;;8190845;28;20027;-64
2021/07/02 19:05:17;;;;;;;352.05;330.50;;;18.80;99.50;;;;;;8191659;28;20031;-64
2021/07/02 19:09:19;;;;;;;390.00;366.52;;;18.70;99.90;;;;;;8186451;28;20062;-66
2021/07/02 19:13:19;;;;;;;397.67;373.88;;;18.50;99.90;;;;;;8189428;28;20443;-66
2021/07/02 19:17:20;;;;;;;323.20;304.15;;;18.10;99.90;;;;;;8188326;28;20019;-67
2021/07/02 19:21:20;;;;;;;247.82;234.90;;;17.70;99.90;;;;;;8188342;28;20027;-64
2021/07/02 19:25:21;;;;;;;281.75;266.95;;;17.50;99.90;;;;;;8186253;28;20093;-66
2021/07/02 19:29:21;;;;;;;271.95;257.77;;;17.50;99.90;;;;;;8182999;28;20035;-66
2021/07/02 19:33:23;;;;;;;121.30;114.82;;;17.20;99.90;;;;;;8179356;28;20555;-66
2021/07/02 19:37:24;;;;;;;124.50;117.82;;;17.20;99.90;;;;;;8195657;28;20124;-66
2021/07/02 19:41:24;;;;;;;118.28;112.05;;;17.10;99.90;;;;;;8176284;28;20060;-66
2021/07/02 19:45:25;;;;;;;120.25;113.63;;;17.00;99.90;;;;;;8180810;28;20367;-65
2021/07/02 19:49:26;;;;;;;124.97;118.22;;;16.80;99.90;;;;;;8177722;28;20103;-65
2021/07/02 19:53:31;;;;;;;123.45;117.00;;;17.00;99.90;;;;;;8184672;28;20110;-65
2021/07/02 19:57:32;;;;;;;131.68;124.47;;;16.70;99.90;;;;;;8201919;28;20039;-65
2021/07/02 20:01:34;;;;;;;138.75;130.93;;;16.40;99.90;;;;;;8188320;28;20039;-65
2021/07/02 20:05:35;;;;;;;134.55;127.22;;;16.50;99.90;;;;;;8191158;28;20504;-65
2021/07/02 20:09:35;;;;;;;249.52;236.30;;;16.50;99.90;;;;;;8181882;28;20082;-66
2021/07/02 20:13:36;;;;;;;277.73;262.90;;;16.40;99.90;;;;;;8178461;28;20043;-66
2021/07/02 20:17:37;;;;;;;264.17;250.27;;;16.10;99.90;;;;;;8179533;28;20817;-66
2021/07/02 20:21:38;;;;;;;147.70;139.32;;;16.10;99.90;;;;;;8179532;28;20508;-66
2021/07/02 20:25:41;;;;;;;140.65;132.77;;;16.20;99.90;;;;;;8180065;28;20068;-66